Time;durP1;ratioP1;P1;durP2;ratioP2;P2;SDS_P1;SDS_P2;PMS_P1;PMS_P2;Temp;Humidity;BMP_temperature;BMP_pressure;BME280_temperature;BME280_humidity;BME280_pressure;Samples;Min_cycle;Max_cycle;Signal;HPM_P1;HPM_P2
2021/01/26 00:01:05;;;;;;;25.67;9.23;;;3.50;69.20;;;;;;2338163;54;21407;-66
2021/01/26 00:03:34;;;;;;;18.35;7.62;;;3.50;69.20;;;;;;2566822;53;20945;-66
2021/01/26 00:06:01;;;;;;;14.65;6.78;;;3.50;69.20;;;;;;2584543;52;21207;-66
2021/01/26 00:08:27;;;;;;;14.90;6.65;;;3.50;69.20;;;;;;2361529;53;21512;-66
2021/01/26 00:10:54;;;;;;;12.37;6.22;;;3.40;69.20;;;;;;2561695;52;21033;-66
2021/01/26 00:13:22;;;;;;;11.18;5.07;;;3.40;69.20;;;;;;2586282;52;21008;-67
2021/01/26 00:15:49;;;;;;;12.02;6.03;;;3.40;69.40;;;;;;2344589;53;20994;-66
2021/01/26 00:18:17;;;;;;;11.05;5.03;;;3.40;69.40;;;;;;2585842;52;21053;-66
2021/01/26 00:20:46;;;;;;;8.55;4.50;;;3.40;69.40;;;;;;2360717;54;21010;-67
2021/01/26 00:23:12;;;;;;;9.68;4.90;;;3.40;69.50;;;;;;2589518;52;20996;-66
2021/01/26 00:25:39;;;;;;;10.60;5.18;;;3.40;69.50;;;;;;2346106;54;20924;-66
2021/01/26 00:28:06;;;;;;;10.05;4.90;;;3.40;69.60;;;;;;2596367;52;21004;-67
2021/01/26 00:30:37;;;;;;;9.63;4.78;;;3.40;69.60;;;;;;2573969;52;21060;-67
2021/01/26 00:33:09;;;;;;;8.82;4.85;;;3.40;69.70;;;;;;2587884;52;21091;-67
2021/01/26 00:35:36;;;;;;;13.10;5.68;;;3.40;69.80;;;;;;2349317;53;20911;-67
2021/01/26 00:38:03;;;;;;;10.18;4.80;;;3.40;70.00;;;;;;2578699;52;20943;-67
2021/01/26 00:40:30;;;;;;;9.57;5.28;;;3.40;70.20;;;;;;2603534;52;20952;-67
2021/01/26 00:42:58;;;;;;;11.80;4.93;;;3.40;70.40;;;;;;2605834;52;20931;-67
2021/01/26 00:45:25;;;;;;;8.18;4.28;;;3.40;70.50;;;;;;2328962;53;21011;-67
2021/01/26 00:47:51;;;;;;;10.43;4.55;;;3.40;70.50;;;;;;2350255;53;21042;-66
2021/01/26 00:50:19;;;;;;;18.08;6.65;;;3.40;70.40;;;;;;2584635;52;21406;-67
2021/01/26 00:52:45;;;;;;;17.15;6.03;;;3.50;70.40;;;;;;2605525;52;20931;-67
2021/01/26 00:55:12;;;;;;;13.88;6.00;;;3.50;70.40;;;;;;2581220;52;21115;-67
2021/01/26 00:57:40;;;;;;;14.23;5.85;;;3.50;70.30;;;;;;2350777;54;20981;-66
2021/01/26 01:00:09;;;;;;;9.35;4.40;;;3.50;70.10;;;;;;2602298;52;21575;-67
2021/01/26 01:02:36;;;;;;;10.30;4.65;;;3.50;70.00;;;;;;2353734;53;21044;-67
2021/01/26 01:05:03;;;;;;;9.20;4.07;;;3.50;69.80;;;;;;2591876;52;20958;-67
2021/01/26 01:07:32;;;;;;;8.27;4.22;;;3.50;69.90;;;;;;2584710;52;21034;-66
2021/01/26 01:10:01;;;;;;;7.85;3.70;;;3.50;70.00;;;;;;2589671;52;20928;-67
2021/01/26 01:12:28;;;;;;;21.67;7.15;;;3.50;70.10;;;;;;2359445;54;20949;-67
2021/01/26 01:14:56;;;;;;;16.67;6.97;;;3.50;70.20;;;;;;2364253;54;20970;-66
2021/01/26 01:17:22;;;;;;;15.13;6.50;;;3.50;70.30;;;;;;2615205;52;21522;-66
2021/01/26 01:19:50;;;;;;;10.80;4.68;;;3.50;70.20;;;;;;2344473;53;20996;-67
2021/01/26 01:22:16;;;;;;;16.05;6.53;;;3.50;70.20;;;;;;2584380;52;20987;-67
2021/01/26 01:24:43;;;;;;;27.13;9.20;;;3.40;70.10;;;;;;2583190;52;20956;-66
2021/01/26 01:27:09;;;;;;;24.85;9.23;;;3.50;70.10;;;;;;2597122;52;20978;-66
2021/01/26 01:29:38;;;;;;;18.98;7.22;;;3.50;70.20;;;;;;2343400;53;20951;-67
2021/01/26 01:32:05;;;;;;;14.57;5.72;;;3.50;70.20;;;;;;2586187;52;21019;-68
2021/01/26 01:34:32;;;;;;;12.02;5.12;;;3.50;70.30;;;;;;2583182;52;21003;-67
2021/01/26 01:36:58;;;;;;;12.90;5.47;;;3.50;70.40;;;;;;2345510;54;20937;-67
2021/01/26 01:39:24;;;;;;;13.95;5.95;;;3.50;70.50;;;;;;2352530;53;21022;-67
2021/01/26 01:41:51;;;;;;;15.02;6.65;;;3.60;70.70;;;;;;2615836;52;21497;-68
2021/01/26 01:44:18;;;;;;;12.70;6.07;;;3.60;70.70;;;;;;2358403;53;21023;-67
2021/01/26 01:46:48;;;;;;;13.80;5.95;;;3.60;70.90;;;;;;2358420;54;20934;-66
2021/01/26 01:49:17;;;;;;;17.52;7.40;;;3.60;70.90;;;;;;2370837;53;21033;-66
2021/01/26 01:51:47;;;;;;;20.52;8.70;;;3.70;71.00;;;;;;2356318;53;21043;-66
2021/01/26 01:54:20;;;;;;;18.15;7.28;;;3.70;70.80;;;;;;2353625;53;20938;-66
2021/01/26 02:00:18;;;;;;;19.85;8.10;;;3.70;70.90;;;;;;2351789;53;21084;-68
2021/01/26 02:02:51;;;;;;;18.62;7.80;;;3.80;70.20;;;;;;2602125;52;20927;-67
2021/01/26 02:05:18;;;;;;;20.52;8.25;;;3.80;70.60;;;;;;2369162;53;20909;-67
2021/01/26 02:07:44;;;;;;;16.37;7.90;;;3.80;70.50;;;;;;2351660;54;20970;-67
2021/01/26 02:10:11;;;;;;;14.02;7.00;;;3.80;70.40;;;;;;2594380;52;20888;-67
2021/01/26 02:12:41;;;;;;;15.95;7.72;;;3.80;70.30;;;;;;2594530;52;20956;-67
2021/01/26 02:15:08;;;;;;;13.30;6.55;;;3.80;70.30;;;;;;2600687;52;20982;-67
2021/01/26 02:17:55;;;;;;;14.07;7.18;;;3.80;70.80;;;;;;2603263;52;21014;-67
2021/01/26 02:23:37;;;;;;;14.60;6.28;;;3.80;69.90;;;;;;2602382;52;20949;-68
2021/01/26 02:29:29;;;;;;;10.98;5.20;;;3.80;69.30;;;;;;2589422;52;20995;-67
2021/01/26 02:32:20;;;;;;;12.52;5.87;;;3.80;69.70;;;;;;2597577;52;20971;-67
2021/01/26 02:36:36;;;;;;;13.20;6.30;;;3.80;70.10;;;;;;2359409;53;20941;-67
2021/01/26 02:40:53;;;;;;;12.60;6.28;;;3.90;70.00;;;;;;2361019;54;21801;-67
2021/01/26 02:44:00;;;;;;;13.55;5.97;;;3.90;70.40;;;;;;2354222;53;21026;-67
2021/01/26 02:49:46;;;;;;;13.35;6.18;;;3.90;70.40;;;;;;2605493;52;21040;-67
2021/01/26 02:52:35;;;;;;;12.93;6.15;;;4.00;69.90;;;;;;2330866;54;20988;-67
2021/01/26 02:55:14;;;;;;;13.40;7.00;;;4.00;70.30;;;;;;2588093;52;20987;-67
2021/01/26 02:57:51;;;;;;;13.38;5.75;;;4.00;70.20;;;;;;2369332;54;21892;-67
2021/01/26 03:00:22;;;;;;;11.27;5.60;;;4.00;70.30;;;;;;2337903;53;20954;-67
2021/01/26 03:03:16;;;;;;;10.30;5.57;;;4.00;70.40;;;;;;2328758;54;20973;-67
2021/01/26 03:06:05;;;;;;;12.20;6.00;;;4.00;70.20;;;;;;2615005;52;21581;-67
2021/01/26 03:08:36;;;;;;;10.57;5.65;;;4.00;70.30;;;;;;2605070;52;21005;-67
2021/01/26 03:11:19;;;;;;;10.32;5.97;;;4.00;70.30;;;;;;2622379;52;20906;-67
2021/01/26 03:13:53;;;;;;;10.32;5.35;;;4.00;70.30;;;;;;2352337;54;26056;-67
2021/01/26 03:16:20;;;;;;;11.48;5.85;;;4.00;70.30;;;;;;2591607;52;20964;-67
2021/01/26 03:18:51;;;;;;;9.95;5.47;;;4.10;70.40;;;;;;2352061;54;22002;-67
2021/01/26 03:21:18;;;;;;;11.05;5.22;;;4.10;71.20;;;;;;2562275;52;20969;-67
2021/01/26 03:23:54;;;;;;;11.00;5.57;;;4.10;70.40;;;;;;2353320;54;20923;-66
2021/01/26 03:26:21;;;;;;;10.50;5.25;;;4.10;70.40;;;;;;2588984;52;20892;-67
2021/01/26 03:28:52;;;;;;;9.60;5.32;;;4.10;70.40;;;;;;2617662;52;21026;-67
2021/01/26 03:31:19;;;;;;;10.00;5.18;;;4.10;70.30;;;;;;2588941;52;20947;-67
2021/01/26 03:33:48;;;;;;;11.65;5.55;;;4.10;70.30;;;;;;2354516;53;20948;-67
2021/01/26 03:36:14;;;;;;;10.68;5.43;;;4.20;70.40;;;;;;2586884;52;20926;-67
2021/01/26 03:38:41;;;;;;;9.35;5.07;;;4.20;70.40;;;;;;2565327;53;20922;-67
2021/01/26 03:41:08;;;;;;;9.38;5.07;;;4.20;70.40;;;;;;2592401;52;21090;-67
2021/01/26 03:43:35;;;;;;;9.32;5.18;;;4.20;70.40;;;;;;2575556;52;20938;-67
2021/01/26 04:02:28;;;;;;;8.95;4.93;;;4.20;70.30;;;;;;2597275;52;20915;-67
2021/01/26 04:05:02;;;;;;;8.98;4.47;;;4.30;69.40;;;;;;2619354;52;20929;-67
2021/01/26 04:07:33;;;;;;;9.35;4.65;;;4.30;70.00;;;;;;2357030;54;21040;-67
2021/01/26 04:10:20;;;;;;;9.60;4.65;;;4.30;69.90;;;;;;2361782;53;21029;-67
2021/01/26 04:12:48;;;;;;;9.00;5.40;;;4.30;70.00;;;;;;2591403;52;21634;-67
2021/01/26 04:15:20;;;;;;;8.73;4.80;;;4.30;70.10;;;;;;2352459;54;21405;-67
2021/01/26 04:17:51;;;;;;;9.43;5.03;;;4.30;70.10;;;;;;2595854;52;21814;-67
2021/01/26 04:20:20;;;;;;;10.38;5.35;;;4.30;70.10;;;;;;2355717;53;20915;-67
2021/01/26 04:22:54;;;;;;;11.45;5.45;;;4.30;70.20;;;;;;2592272;52;21074;-67
2021/01/26 04:25:56;;;;;;;9.98;5.40;;;4.30;70.00;;;;;;2585412;52;20933;-67
2021/01/26 04:28:33;;;;;;;9.00;4.60;;;4.30;69.80;;;;;;2599458;52;21026;-67
2021/01/26 04:31:00;;;;;;;9.13;5.32;;;4.30;70.10;;;;;;2549386;53;21484;-67
2021/01/26 04:33:27;;;;;;;10.27;5.87;;;4.30;70.10;;;;;;2329159;53;20935;-66
2021/01/26 04:35:53;;;;;;;10.48;5.90;;;4.30;70.00;;;;;;2549870;53;21656;-67
2021/01/26 04:38:20;;;;;;;12.55;6.40;;;4.40;70.00;;;;;;2591603;52;21006;-67
2021/01/26 04:40:48;;;;;;;11.55;6.37;;;4.40;70.10;;;;;;2341827;53;21993;-67
2021/01/26 04:47:10;;;;;;;10.13;5.32;;;4.40;70.60;;;;;;2580299;52;20985;-67
2021/01/26 04:50:03;;;;;;;9.23;5.15;;;4.40;68.90;;;;;;2569605;53;20956;-67
2021/01/26 04:53:42;;;;;;;10.73;5.75;;;4.40;69.50;;;;;;2541240;53;20949;-67
2021/01/26 04:56:54;;;;;;;9.77;5.25;;;4.40;69.70;;;;;;2577905;53;20989;-67
2021/01/26 04:59:36;;;;;;;9.48;5.15;;;4.40;69.80;;;;;;2589979;52;20954;-67
2021/01/26 05:03:10;;;;;;;8.95;4.68;;;4.40;69.60;;;;;;2565500;52;20957;-67
2021/01/26 05:05:40;;;;;;;13.02;6.28;;;4.50;69.50;;;;;;2575791;52;21796;-67
2021/01/26 05:08:12;;;;;;;10.65;5.30;;;4.50;69.80;;;;;;2574890;52;20972;-67
2021/01/26 05:10:51;;;;;;;11.70;6.22;;;4.50;70.00;;;;;;2565434;52;20942;-67
2021/01/26 05:13:41;;;;;;;13.13;6.05;;;4.50;69.70;;;;;;2320636;54;20934;-67
2021/01/26 05:16:15;;;;;;;10.75;6.05;;;4.50;69.60;;;;;;2582079;52;20971;-67
2021/01/26 05:18:48;;;;;;;11.18;6.70;;;4.50;69.80;;;;;;2606596;52;20993;-67
2021/01/26 05:21:29;;;;;;;12.65;6.80;;;4.50;69.60;;;;;;2359978;54;20947;-67
2021/01/26 05:23:59;;;;;;;11.10;5.72;;;4.50;69.50;;;;;;2333761;53;20988;-67
2021/01/26 05:26:25;;;;;;;13.98;7.03;;;4.50;69.60;;;;;;2610097;52;21411;-67
2021/01/26 05:28:53;;;;;;;12.75;6.25;;;4.40;69.40;;;;;;2363045;53;20965;-67
2021/01/26 05:31:28;;;;;;;13.02;7.20;;;4.50;69.50;;;;;;2357982;54;20955;-67
2021/01/26 05:33:57;;;;;;;13.18;6.57;;;4.40;69.50;;;;;;2340600;53;21743;-67
2021/01/26 05:36:26;;;;;;;12.70;7.20;;;4.40;69.30;;;;;;2560612;52;21028;-67
2021/01/26 05:38:52;;;;;;;13.25;7.50;;;4.50;69.40;;;;;;2571187;52;20983;-68
2021/01/26 05:41:19;;;;;;;16.62;8.23;;;4.40;69.40;;;;;;2600682;52;20954;-67
2021/01/26 05:43:48;;;;;;;14.38;7.75;;;4.40;69.20;;;;;;2583104;52;20979;-67
2021/01/26 05:46:31;;;;;;;14.85;8.00;;;4.40;69.30;;;;;;2575867;52;21562;-67
2021/01/26 05:49:12;;;;;;;15.57;8.02;;;4.40;69.00;;;;;;2606246;52;21077;-67
2021/01/26 05:51:41;;;;;;;15.73;8.50;;;4.40;69.30;;;;;;2335240;54;21436;-66
2021/01/26 05:54:20;;;;;;;17.98;9.07;;;4.40;69.20;;;;;;2333462;54;21720;-67
2021/01/26 05:56:50;;;;;;;15.00;7.85;;;4.40;68.90;;;;;;2348837;54;21311;-67
2021/01/26 05:59:33;;;;;;;15.73;8.27;;;4.40;69.30;;;;;;2342226;53;21033;-66
2021/01/26 06:02:13;;;;;;;16.90;8.45;;;4.40;69.30;;;;;;2598216;52;20985;-66
2021/01/26 06:04:40;;;;;;;16.17;8.73;;;4.30;69.20;;;;;;2368653;54;20970;-66
2021/01/26 06:07:16;;;;;;;17.12;9.23;;;4.30;69.30;;;;;;2602433;52;21361;-67
2021/01/26 06:09:43;;;;;;;19.62;9.20;;;4.30;69.10;;;;;;2343144;54;20928;-66
2021/01/26 06:12:27;;;;;;;18.83;9.15;;;4.30;69.20;;;;;;2577206;52;21023;-67
2021/01/26 06:15:12;;;;;;;17.83;9.68;;;4.30;69.10;;;;;;2606296;52;21492;-67
2021/01/26 06:17:39;;;;;;;19.00;9.93;;;4.30;69.40;;;;;;2344554;53;21063;-66
2021/01/26 06:20:23;;;;;;;17.42;9.40;;;4.30;69.50;;;;;;2584612;52;21426;-66
2021/01/26 06:22:50;;;;;;;19.65;8.63;;;4.20;69.20;;;;;;2581364;53;21786;-67
2021/01/26 06:25:23;;;;;;;18.83;8.70;;;4.20;69.60;;;;;;2586682;53;21655;-66
2021/01/26 06:28:31;;;;;;;16.40;7.72;;;4.20;69.40;;;;;;2316555;54;21167;-66
2021/01/26 06:31:08;;;;;;;16.67;8.23;;;4.20;69.50;;;;;;2584750;53;21131;-67
2021/01/26 06:35:09;;;;;;;18.58;9.35;;;4.20;69.80;;;;;;2339560;54;20968;-66
2021/01/26 06:40:52;;;;;;;20.45;9.55;;;4.20;69.00;;;;;;2581554;53;21113;-67
2021/01/26 06:43:35;;;;;;;18.05;8.82;;;4.20;68.70;;;;;;2302305;54;1888376;-66
2021/01/26 06:46:07;;;;;;;;;;;4.20;69.40;;;;;;2561754;53;21012;-66
2021/01/26 06:49:13;;;;;;;17.35;8.55;;;4.20;68.90;;;;;;2555431;52;20756;-67
2021/01/26 06:51:47;;;;;;;17.40;7.82;;;4.20;69.40;;;;;;2300222;53;21025;-66
2021/01/26 06:56:55;;;;;;;19.35;9.98;;;4.20;69.60;;;;;;2552371;53;21570;-66
2021/01/26 07:01:01;;;;;;;16.52;8.05;;;4.30;69.30;;;;;;2295726;54;20995;-67
2021/01/26 07:03:54;;;;;;;15.27;8.15;;;4.30;69.60;;;;;;2332817;54;20950;-67
2021/01/26 07:08:31;;;;;;;20.45;9.77;;;4.30;69.60;;;;;;2563501;52;21040;-66
2021/01/26 07:12:07;;;;;;;15.80;8.27;;;4.30;69.60;;;;;;2569570;52;21065;-67
2021/01/26 07:16:52;;;;;;;17.15;7.72;;;4.30;69.50;;;;;;2572919;53;21990;-66
2021/01/26 07:20:11;;;;;;;14.87;7.72;;;4.30;69.70;;;;;;2584810;52;20955;-67
2021/01/26 07:22:54;;;;;;;16.92;8.68;;;4.30;69.70;;;;;;2598860;52;21002;-67
2021/01/26 07:27:10;;;;;;;16.12;8.95;;;4.30;69.70;;;;;;2590850;52;20973;-66
2021/01/26 07:29:57;;;;;;;15.13;7.70;;;4.30;68.90;;;;;;2593068;52;20908;-67
2021/01/26 07:32:39;;;;;;;18.52;8.50;;;4.20;69.40;;;;;;2346945;53;20952;-66
2021/01/26 07:36:41;;;;;;;16.67;8.00;;;4.20;69.40;;;;;;2582350;52;20975;-66
2021/01/26 07:47:44;;;;;;;16.37;8.15;;;4.20;69.40;;;;;;2565685;53;20939;-66
2021/01/26 07:50:23;;;;;;;17.83;7.97;;;4.20;68.80;;;;;;2355754;53;20961;-66
2021/01/26 07:52:53;;;;;;;17.02;7.87;;;4.20;69.30;;;;;;2590635;52;21270;-67
2021/01/26 07:55:31;;;;;;;17.00;8.02;;;4.10;69.30;;;;;;2568727;52;21464;-67
2021/01/26 07:58:05;;;;;;;17.23;8.57;;;4.10;69.60;;;;;;2571842;52;21023;-66
2021/01/26 08:00:38;;;;;;;19.48;7.45;;;4.10;69.60;;;;;;2325328;55;20981;-66
2021/01/26 08:03:04;;;;;;;18.65;8.13;;;4.10;69.90;;;;;;2571719;52;20958;-67
2021/01/26 08:05:42;;;;;;;17.85;8.13;;;4.10;70.10;;;;;;2583868;52;21069;-66
2021/01/26 08:08:17;;;;;;;17.25;8.10;;;4.10;70.10;;;;;;2582988;52;20947;-66
2021/01/26 08:10:43;;;;;;;15.65;7.07;;;4.20;70.50;;;;;;2617291;52;20935;-67
2021/01/26 08:13:10;;;;;;;17.12;8.27;;;4.20;70.50;;;;;;2596144;52;20959;-67
2021/01/26 08:15:39;;;;;;;22.02;9.43;;;4.20;70.40;;;;;;2592328;52;21040;-66
2021/01/26 08:18:25;;;;;;;19.30;8.98;;;4.20;70.40;;;;;;2592904;52;20985;-66
2021/01/26 08:20:53;;;;;;;20.58;8.68;;;4.30;70.00;;;;;;2563481;53;20942;-66
2021/01/26 08:23:24;;;;;;;16.92;8.23;;;4.30;70.20;;;;;;2585166;52;20987;-66
2021/01/26 08:25:53;;;;;;;16.70;8.90;;;4.30;70.20;;;;;;2298578;54;20944;-66
2021/01/26 08:28:47;;;;;;;19.12;9.10;;;4.30;70.00;;;;;;2343148;53;20910;-66
2021/01/26 08:31:26;;;;;;;18.42;8.35;;;4.30;69.70;;;;;;2586938;52;21007;-66
2021/01/26 08:33:55;;;;;;;17.15;8.32;;;4.30;69.60;;;;;;2587213;52;20950;-66
2021/01/26 08:36:28;;;;;;;17.58;8.63;;;4.30;69.80;;;;;;2588765;52;21030;-66
2021/01/26 08:38:57;;;;;;;18.73;9.23;;;4.30;69.80;;;;;;2587189;52;21035;-66
2021/01/26 08:41:49;;;;;;;20.50;9.48;;;4.30;69.80;;;;;;2586407;52;20959;-66
2021/01/26 08:44:58;;;;;;;18.75;9.63;;;4.30;69.60;;;;;;2583777;52;20979;-66
2021/01/26 08:47:46;;;;;;;20.62;9.30;;;4.30;69.40;;;;;;2348760;53;21065;-66
2021/01/26 08:50:20;;;;;;;15.73;8.23;;;4.30;69.80;;;;;;2346379;54;21072;-66
2021/01/26 08:52:48;;;;;;;16.12;7.25;;;4.30;70.10;;;;;;2355726;54;21801;-67
2021/01/26 08:55:37;;;;;;;18.70;9.93;;;4.30;70.40;;;;;;2604051;52;21117;-66
2021/01/26 08:58:04;;;;;;;14.70;7.82;;;4.30;69.90;;;;;;2347743;54;20930;-66
2021/01/26 09:00:44;;;;;;;15.60;8.18;;;4.30;70.40;;;;;;2599097;52;20932;-66
2021/01/26 09:03:32;;;;;;;19.42;8.35;;;4.40;70.50;;;;;;2607112;52;20917;-67
2021/01/26 09:06:04;;;;;;;17.50;8.65;;;4.40;70.50;;;;;;2614458;52;20974;-67
2021/01/26 09:11:12;;;;;;;18.23;8.80;;;4.40;70.70;;;;;;2618733;52;21740;-67
2021/01/26 09:13:39;;;;;;;15.68;7.53;;;4.50;70.20;;;;;;2368815;53;20954;-67
2021/01/26 09:16:26;;;;;;;20.25;9.15;;;4.60;70.90;;;;;;2604430;52;21555;-67
2021/01/26 09:18:57;;;;;;;15.93;7.72;;;4.60;70.80;;;;;;2554350;52;21065;-67
2021/01/26 09:21:28;;;;;;;;;;;4.60;70.90;;;;;;2586261;52;20962;-67
2021/01/26 09:23:55;;;;;;;14.10;6.90;;;4.70;70.20;;;;;;2588397;52;20062;-67
2021/01/26 09:26:24;;;;;;;13.27;6.72;;;4.70;71.20;;;;;;2582962;52;20951;-67
2021/01/26 09:28:51;;;;;;;17.70;7.97;;;4.80;71.40;;;;;;2588704;52;20954;-67
2021/01/26 09:31:19;;;;;;;15.95;8.57;;;4.80;71.50;;;;;;2587387;52;20983;-67
2021/01/26 09:33:45;;;;;;;16.05;7.95;;;4.90;71.30;;;;;;2354587;53;20942;-67
2021/01/26 09:36:16;;;;;;;16.10;7.45;;;4.90;71.30;;;;;;2585881;52;21043;-67
2021/01/26 09:38:48;;;;;;;17.17;8.32;;;5.00;71.40;;;;;;2345054;54;20997;-67
2021/01/26 09:41:21;;;;;;;16.55;7.87;;;5.00;71.40;;;;;;2565931;52;20932;-67
2021/01/26 09:44:04;;;;;;;13.35;7.10;;;5.10;71.50;;;;;;2569685;52;20954;-67
2021/01/26 09:46:39;;;;;;;12.85;6.40;;;5.10;71.60;;;;;;2585156;52;20979;-67
2021/01/26 09:49:38;;;;;;;15.48;7.82;;;5.20;71.90;;;;;;2581889;52;21894;-67
2021/01/26 09:52:10;;;;;;;14.85;7.57;;;5.30;71.60;;;;;;2583900;52;21104;-67
2021/01/26 09:54:38;;;;;;;12.75;6.43;;;5.40;72.90;;;;;;2572382;52;20951;-67
2021/01/26 09:57:08;;;;;;;12.55;6.62;;;5.60;74.60;;;;;;2599347;52;20977;-68
2021/01/26 09:59:36;;;;;;;11.98;6.78;;;5.80;76.80;;;;;;2342516;54;21071;-67
2021/01/26 10:02:06;;;;;;;15.77;7.10;;;6.20;78.00;;;;;;2580540;52;20989;-68
2021/01/26 10:04:35;;;;;;;14.73;6.85;;;6.50;78.00;;;;;;2593757;52;21093;-67
2021/01/26 10:07:15;;;;;;;15.07;6.62;;;6.70;76.80;;;;;;2360054;53;21471;-68
2021/01/26 10:09:42;;;;;;;12.10;6.20;;;6.90;75.20;;;;;;2591445;52;21036;-67
2021/01/26 10:12:26;;;;;;;11.38;5.95;;;7.10;74.60;;;;;;2361409;53;20982;-68
2021/01/26 10:18:30;;;;;;;10.95;5.90;;;7.20;74.70;;;;;;2582638;52;20970;-68
2021/01/26 10:21:02;;;;;;;10.52;5.35;;;7.70;74.20;;;;;;2364598;54;21037;-68
2021/01/26 10:23:57;;;;;;;9.05;5.30;;;8.00;78.20;;;;;;2590612;52;21634;-68
2021/01/26 10:26:24;;;;;;;9.10;4.85;;;8.30;77.10;;;;;;2596230;52;20960;-68
2021/01/26 10:29:14;;;;;;;8.85;4.85;;;8.60;77.50;;;;;;2353017;54;20961;-68
2021/01/26 10:31:48;;;;;;;9.55;5.00;;;8.90;74.90;;;;;;2350882;54;20983;-68
2021/01/26 10:35:04;;;;;;;8.35;4.93;;;9.00;75.40;;;;;;2351284;53;21074;-68
2021/01/26 10:37:32;;;;;;;9.52;4.78;;;9.10;74.30;;;;;;2348913;54;20994;-68
2021/01/26 10:40:32;;;;;;;9.40;5.47;;;9.30;73.30;;;;;;2621948;52;20942;-68
2021/01/26 10:43:05;;;;;;;9.18;5.57;;;9.40;70.80;;;;;;2620371;52;20958;-68
2021/01/26 10:45:52;;;;;;;9.82;5.18;;;9.50;70.90;;;;;;2591597;52;20967;-68
2021/01/26 10:48:34;;;;;;;11.98;5.47;;;9.50;70.30;;;;;;2585663;52;21131;-67
2021/01/26 10:51:26;;;;;;;8.57;4.57;;;9.50;69.70;;;;;;2583166;52;21033;-68
2021/01/26 10:53:53;;;;;;;10.15;5.75;;;9.50;70.10;;;;;;2615564;52;21006;-68
2021/01/26 10:56:20;;;;;;;10.27;5.80;;;9.50;70.10;;;;;;2591211;52;21320;-68
2021/01/26 10:58:48;;;;;;;11.77;5.97;;;9.50;69.50;;;;;;2606781;52;21140;-68
2021/01/26 11:01:20;;;;;;;9.60;5.43;;;9.50;69.10;;;;;;2606480;52;20957;-68
2021/01/26 11:03:49;;;;;;;8.93;5.50;;;9.50;69.40;;;;;;2592968;52;21090;-68
2021/01/26 11:06:19;;;;;;;10.50;5.80;;;9.50;69.40;;;;;;2619533;52;21000;-68
2021/01/26 11:08:47;;;;;;;10.32;5.80;;;9.50;68.80;;;;;;2354735;54;21035;-68
2021/01/26 11:11:14;;;;;;;11.00;5.60;;;9.50;68.30;;;;;;2587836;52;20978;-68
2021/01/26 11:13:40;;;;;;;8.35;5.00;;;9.40;67.80;;;;;;2586882;52;20937;-67
2021/01/26 11:16:06;;;;;;;11.15;5.57;;;9.30;67.50;;;;;;2607848;52;21079;-67
2021/01/26 11:18:34;;;;;;;9.05;5.68;;;9.20;67.10;;;;;;2597806;52;21513;-67
2021/01/26 11:21:01;;;;;;;10.43;5.68;;;9.10;67.10;;;;;;2587176;52;20958;-67
2021/01/26 11:23:27;;;;;;;8.57;5.28;;;9.10;67.10;;;;;;2588527;52;20947;-67
2021/01/26 11:25:54;;;;;;;10.05;5.10;;;8.90;66.80;;;;;;2612757;52;20959;-67
2021/01/26 11:28:20;;;;;;;8.68;5.05;;;8.90;67.70;;;;;;2595035;52;21431;-67
2021/01/26 11:30:47;;;;;;;10.35;5.70;;;8.80;67.70;;;;;;2351112;53;20995;-67
2021/01/26 11:33:13;;;;;;;8.68;4.97;;;8.80;67.30;;;;;;2600832;52;21081;-67
2021/01/26 11:35:41;;;;;;;9.93;5.10;;;8.70;67.00;;;;;;2592419;52;20995;-67
2021/01/26 11:38:07;;;;;;;9.15;5.05;;;8.70;67.10;;;;;;2590995;52;21068;-67
2021/01/26 11:40:34;;;;;;;9.32;5.68;;;8.60;67.00;;;;;;2602369;52;21561;-67
2021/01/26 11:43:01;;;;;;;10.63;6.50;;;8.50;67.10;;;;;;2587473;52;21007;-67
2021/01/26 11:45:32;;;;;;;10.02;6.20;;;8.40;66.60;;;;;;2589186;52;20939;-67
2021/01/26 11:48:02;;;;;;;10.05;5.62;;;8.40;66.40;;;;;;2601392;52;21475;-67
2021/01/26 11:50:28;;;;;;;10.30;5.70;;;8.30;66.50;;;;;;2600139;52;20939;-67
2021/01/26 11:52:55;;;;;;;11.95;5.80;;;8.20;66.90;;;;;;2582056;52;21044;-67
2021/01/26 11:55:24;;;;;;;12.77;7.30;;;8.20;67.30;;;;;;2338983;53;21012;-67
2021/01/26 11:57:51;;;;;;;11.18;6.47;;;8.10;67.30;;;;;;2615404;52;20938;-67
2021/01/26 12:00:22;;;;;;;12.43;5.87;;;8.10;67.40;;;;;;2360176;53;20959;-67
2021/01/26 12:02:49;;;;;;;13.68;7.15;;;8.00;67.70;;;;;;2575558;52;21489;-67
2021/01/26 12:05:16;;;;;;;16.55;7.55;;;8.00;67.70;;;;;;2585907;52;20994;-68
2021/01/26 12:07:43;;;;;;;12.82;6.65;;;8.00;67.20;;;;;;2591233;52;21001;-67
2021/01/26 12:10:10;;;;;;;13.25;6.75;;;8.00;67.70;;;;;;2351398;54;20927;-67
2021/01/26 12:12:38;;;;;;;11.38;6.35;;;7.90;67.70;;;;;;2593801;52;20976;-66
2021/01/26 12:15:15;;;;;;;10.63;5.53;;;7.90;67.90;;;;;;2356904;54;21057;-67
2021/01/26 12:17:42;;;;;;;11.10;5.65;;;7.90;68.10;;;;;;2572206;52;20979;-68
2021/01/26 12:20:08;;;;;;;9.40;5.80;;;7.90;68.40;;;;;;2347155;53;21581;-67
2021/01/26 12:22:34;;;;;;;11.57;6.35;;;7.90;68.60;;;;;;2596388;52;20963;-67
2021/01/26 12:25:01;;;;;;;11.43;6.57;;;7.90;68.70;;;;;;2347777;54;21010;-67
2021/01/26 12:27:27;;;;;;;11.68;6.72;;;7.90;68.40;;;;;;2593704;52;20893;-67
2021/01/26 12:29:53;;;;;;;10.70;6.18;;;7.90;68.00;;;;;;2366764;54;21001;-67
2021/01/26 12:32:20;;;;;;;8.95;5.15;;;7.90;68.50;;;;;;2358120;53;20947;-68
2021/01/26 12:34:46;;;;;;;7.53;3.45;;;7.90;69.00;;;;;;2583272;52;21015;-67
2021/01/26 12:37:12;;;;;;;6.45;2.17;;;7.80;69.40;;;;;;2366195;54;21613;-67
2021/01/26 12:39:38;;;;;;;6.55;1.92;;;7.90;69.60;;;;;;2614927;52;21482;-67
2021/01/26 12:42:05;;;;;;;6.25;1.90;;;7.90;69.50;;;;;;2572333;53;21954;-67
2021/01/26 12:44:31;;;;;;;3.92;1.60;;;8.00;69.80;;;;;;2597257;52;21033;-67
2021/01/26 12:46:58;;;;;;;5.57;1.62;;;8.00;69.80;;;;;;2355897;53;21378;-67
2021/01/26 12:49:45;;;;;;;4.32;1.55;;;8.00;69.80;;;;;;2587835;52;21010;-68
2021/01/26 12:52:11;;;;;;;3.75;1.65;;;8.10;69.30;;;;;;2341614;54;21113;-67
2021/01/26 12:54:38;;;;;;;3.65;1.50;;;8.10;70.00;;;;;;2346365;53;21057;-67
2021/01/26 12:57:05;;;;;;;5.43;1.87;;;8.20;70.30;;;;;;2618273;52;21494;-67
2021/01/26 12:59:32;;;;;;;4.20;1.75;;;8.30;70.30;;;;;;2595665;52;21043;-67
2021/01/26 13:02:01;;;;;;;4.12;2.00;;;8.30;69.80;;;;;;2601155;52;20938;-67
2021/01/26 13:04:37;;;;;;;4.87;1.52;;;8.40;70.30;;;;;;2614955;52;20946;-67
2021/01/26 13:07:07;;;;;;;3.10;1.30;;;8.50;71.00;;;;;;2365765;54;20946;-67
2021/01/26 13:09:34;;;;;;;3.60;1.40;;;8.60;71.20;;;;;;2619092;52;21519;-67
2021/01/26 13:12:00;;;;;;;3.12;1.40;;;8.80;71.70;;;;;;2612863;52;20953;-67
2021/01/26 13:14:27;;;;;;;4.15;1.58;;;8.90;71.50;;;;;;2580022;52;20957;-68
2021/01/26 13:16:53;;;;;;;4.37;1.60;;;9.00;71.40;;;;;;2580885;52;20971;-68
2021/01/26 13:19:21;;;;;;;2.58;1.10;;;9.10;71.00;;;;;;2347941;53;21017;-67
2021/01/26 13:21:48;;;;;;;4.12;1.77;;;9.20;70.80;;;;;;2618884;52;20950;-67
2021/01/26 13:24:15;;;;;;;7.45;2.70;;;9.40;70.50;;;;;;2599297;52;21417;-68
2021/01/26 13:26:41;;;;;;;5.28;2.47;;;9.30;69.80;;;;;;2355992;54;21895;-67
2021/01/26 13:29:08;;;;;;;9.35;3.75;;;9.40;69.90;;;;;;2349880;53;21950;-67
2021/01/26 13:31:35;;;;;;;7.35;3.42;;;9.40;69.90;;;;;;2567827;52;20910;-67
2021/01/26 13:34:02;;;;;;;6.20;2.53;;;9.50;69.80;;;;;;2361792;54;20968;-68
2021/01/26 13:36:28;;;;;;;7.55;3.60;;;9.50;69.70;;;;;;2585909;52;21429;-67
2021/01/26 13:38:55;;;;;;;6.20;3.30;;;9.50;68.90;;;;;;2580940;52;20959;-67
2021/01/26 13:41:21;;;;;;;4.93;2.75;;;9.60;68.90;;;;;;2356981;54;20922;-67
2021/01/26 13:43:47;;;;;;;6.18;2.35;;;9.60;68.80;;;;;;2598513;52;21000;-67
2021/01/26 13:46:14;;;;;;;6.20;2.08;;;9.60;68.70;;;;;;2363212;54;20894;-67
2021/01/26 13:48:41;;;;;;;4.55;1.90;;;9.60;68.80;;;;;;2582767;52;21425;-67
2021/01/26 13:51:08;;;;;;;8.18;3.42;;;9.60;69.20;;;;;;2596297;52;21511;-67
2021/01/26 13:53:36;;;;;;;4.20;2.28;;;9.60;68.70;;;;;;2345733;54;20972;-67
2021/01/26 13:56:04;;;;;;;4.53;2.33;;;9.60;68.40;;;;;;2583975;52;20963;-67
2021/01/26 13:58:32;;;;;;;5.35;2.60;;;9.60;68.30;;;;;;2595979;52;21670;-67
2021/01/26 14:01:01;;;;;;;5.40;2.28;;;9.60;68.20;;;;;;2589651;52;20942;-67
2021/01/26 14:03:28;;;;;;;6.47;2.47;;;9.60;67.90;;;;;;2593127;52;21046;-67
2021/01/26 14:05:54;;;;;;;5.82;2.60;;;9.50;67.30;;;;;;2604062;52;21383;-67
2021/01/26 14:08:21;;;;;;;5.22;2.33;;;9.50;67.60;;;;;;2594293;52;20999;-68
2021/01/26 14:10:47;;;;;;;6.55;2.50;;;9.50;67.50;;;;;;2608836;52;21034;-67
2021/01/26 14:13:14;;;;;;;5.50;2.00;;;9.50;67.60;;;;;;2347458;54;20939;-67
2021/01/26 14:15:41;;;;;;;5.55;1.85;;;9.40;67.70;;;;;;2588300;52;21035;-67
2021/01/26 14:18:07;;;;;;;3.87;1.83;;;9.40;67.90;;;;;;2346286;53;21726;-67
2021/01/26 14:20:34;;;;;;;4.00;2.40;;;9.40;67.50;;;;;;2582681;52;20951;-67
2021/01/26 14:23:02;;;;;;;4.68;1.83;;;9.40;67.70;;;;;;2602236;52;20951;-67
2021/01/26 14:25:29;;;;;;;4.20;1.75;;;9.30;67.70;;;;;;2338851;53;20966;-67
2021/01/26 14:27:55;;;;;;;4.53;2.17;;;9.30;67.70;;;;;;2600319;52;21515;-67